Time;durP1;ratioP1;P1;durP2;ratioP2;P2;SDS_P1;SDS_P2;PMS_P1;PMS_P2;Temp;Humidity;BMP_temperature;BMP_pressure;BME280_temperature;BME280_humidity;BME280_pressure;Samples;Min_cycle;Max_cycle;Signal;HPM_P1;HPM_P2
2023/02/06 00:01:04;;;;;;;;;;;;;;;19.00;18.09;100268.34;5073330;28;19920;-82
2023/02/06 00:03:30;;;;;;;;;;;;;;;18.49;18.34;100262.25;5072081;28;20295;-82
2023/02/06 00:05:57;;;;;;;;;;;;;;;18.79;18.30;100264.84;5071992;28;19920;-82
2023/02/06 00:08:24;;;;;;;;;;;;;;;19.12;18.20;100260.03;5077255;28;20426;-82
2023/02/06 00:10:50;;;;;;;;;;;;;;;19.04;18.09;100264.53;5074812;28;19917;-82
2023/02/06 00:13:16;;;;;;;;;;;;;;;19.17;17.88;100257.00;5057343;28;19916;-82
2023/02/06 00:15:43;;;;;;;;;;;;;;;19.29;17.90;100243.91;5057290;28;19924;-82
2023/02/06 00:18:09;;;;;;;;;;;;;;;19.26;18.07;100268.84;5070247;28;19920;-82
2023/02/06 00:20:35;;;;;;;;;;;;;;;19.56;18.00;100264.66;5077039;28;19917;-82
2023/02/06 00:23:01;;;;;;;;;;;;;;;19.99;17.72;100252.81;5076045;28;19921;-82
2023/02/06 00:25:27;;;;;;;;;;;;;;;20.27;17.73;100261.22;5077335;28;19928;-82
2023/02/06 00:27:53;;;;;;;;;;;;;;;20.40;17.24;100255.22;5075624;28;19917;-82
2023/02/06 00:30:20;;;;;;;;;;;;;;;20.55;16.85;100251.66;5057001;28;19925;-82
2023/02/06 00:32:46;;;;;;;;;;;;;;;20.75;17.22;100254.56;5056919;28;19924;-82
2023/02/06 00:35:12;;;;;;;;;;;;;;;20.97;17.10;100251.94;5056554;28;19916;-82
2023/02/06 00:37:38;;;;;;;;;;;;;;;21.11;17.04;100255.13;5056891;28;19924;-82
2023/02/06 00:40:04;;;;;;;;;;;;;;;21.03;17.01;100258.88;5057384;28;19917;-82
2023/02/06 00:42:30;;;;;;;;;;;;;;;21.12;16.65;100253.16;5057086;28;19912;-82
2023/02/06 00:44:56;;;;;;;;;;;;;;;21.20;16.92;100244.56;5057799;28;20027;-82
2023/02/06 00:47:22;;;;;;;;;;;;;;;21.28;17.05;100237.97;5056698;28;19923;-82
2023/02/06 00:49:48;;;;;;;;;;;;;;;21.30;16.29;100243.22;5056753;28;19960;-82
2023/02/06 00:52:14;;;;;;;;;;;;;;;20.98;16.68;100242.38;5069999;28;19960;-82
2023/02/06 00:54:40;;;;;;;;;;;;;;;20.82;16.71;100233.19;5068103;28;20050;-82
2023/02/06 00:57:06;;;;;;;;;;;;;;;20.75;17.05;100240.59;5057731;28;20284;-82
2023/02/06 00:59:32;;;;;;;;;;;;;;;20.81;16.88;100223.22;5076605;28;19924;-82
2023/02/06 01:01:59;;;;;;;;;;;;;;;20.99;17.05;100240.41;5073942;28;19928;-82
2023/02/06 01:04:25;;;;;;;;;;;;;;;21.03;16.59;100235.72;5056220;28;19917;-82
2023/02/06 01:06:51;;;;;;;;;;;;;;;21.05;16.93;100236.22;5056423;28;19967;-83
2023/02/06 01:09:17;;;;;;;;;;;;;;;21.06;17.20;100241.44;5056191;28;20359;-81
2023/02/06 01:11:43;;;;;;;;;;;;;;;20.81;16.73;100233.56;5056792;28;20010;-81
2023/02/06 01:14:09;;;;;;;;;;;;;;;20.66;16.77;100233.19;5056501;28;20023;-81
2023/02/06 01:16:35;;;;;;;;;;;;;;;19.83;17.45;100233.25;5055719;28;20012;-84
2023/02/06 01:19:01;;;;;;;;;;;;;;;19.37;17.29;100228.22;5055731;28;20346;-84
2023/02/06 01:21:27;;;;;;;;;;;;;;;18.85;18.08;100236.47;5076345;28;20338;-84
2023/02/06 01:23:53;;;;;;;;;;;;;;;19.11;18.21;100242.50;5076513;28;19920;-84
2023/02/06 01:26:21;;;;;;;;;;;;;;;19.52;17.65;100232.28;5075883;28;19920;-84
2023/02/06 01:28:47;;;;;;;;;;;;;;;19.86;17.67;100224.16;5075995;28;19924;-84
2023/02/06 01:31:16;;;;;;;;;;;;;;;19.97;17.36;100219.72;5076020;28;19917;-84
2023/02/06 01:33:43;;;;;;;;;;;;;;;20.06;17.20;100227.94;5060810;28;19962;-84
2023/02/06 01:36:09;;;;;;;;;;;;;;;20.32;17.33;100213.53;5072035;28;19916;-81
2023/02/06 01:38:35;;;;;;;;;;;;;;;20.55;17.27;100208.97;5055764;28;19974;-81
2023/02/06 01:41:01;;;;;;;;;;;;;;;20.79;17.03;100206.03;5055848;28;19962;-81
2023/02/06 01:43:29;;;;;;;;;;;;;;;20.86;16.87;100209.00;5055971;28;20281;-81
2023/02/06 01:45:55;;;;;;;;;;;;;;;20.90;17.08;100217.44;5057666;28;19917;-81
2023/02/06 01:48:28;;;;;;;;;;;;;;;20.90;16.75;100212.69;5075732;28;19917;-81
2023/02/06 01:50:56;;;;;;;;;;;;;;;20.92;17.13;100198.34;5075787;28;19969;-81
2023/02/06 01:53:23;;;;;;;;;;;;;;;20.81;16.94;100203.69;5070715;28;20000;-81
2023/02/06 01:55:51;;;;;;;;;;;;;;;20.44;17.39;100199.53;5055524;28;19928;-81
2023/02/06 01:58:26;;;;;;;;;;;;;;;20.23;16.88;100190.59;5074553;28;20287;-81
2023/02/06 02:00:53;;;;;;;;;;;;;;;19.82;17.21;100191.78;5075367;28;19916;-81
2023/02/06 02:03:19;;;;;;;;;;;;;;;19.89;17.52;100191.97;5075114;28;20427;-81
2023/02/06 02:05:46;;;;;;;;;;;;;;;20.08;17.31;100189.34;5074137;28;20020;-81
2023/02/06 02:08:17;;;;;;;;;;;;;;;20.02;17.45;100191.56;5075399;28;19924;-81
2023/02/06 02:10:43;;;;;;;;;;;;;;;19.93;17.26;100184.53;5067125;28;19917;-81
2023/02/06 02:13:09;;;;;;;;;;;;;;;19.79;17.18;100189.72;5055322;28;19917;-81
2023/02/06 02:15:44;;;;;;;;;;;;;;;19.83;17.39;100191.44;5055308;28;19927;-81
2023/02/06 02:18:25;;;;;;;;;;;;;;;19.55;17.29;100190.59;5054779;28;19916;-81
2023/02/06 02:21:09;;;;;;;;;;;;;;;19.32;17.68;100192.25;5055039;28;20381;-81
2023/02/06 02:23:38;;;;;;;;;;;;;;;19.60;17.49;100184.78;5055188;28;19944;-81
2023/02/06 02:26:23;;;;;;;;;;;;;;;20.00;17.50;100181.94;5054923;28;19917;-81
2023/02/06 02:29:08;;;;;;;;;;;;;;;20.41;16.86;100177.91;5055372;28;19986;-81
2023/02/06 02:31:37;;;;;;;;;;;;;;;20.62;17.03;100181.25;5056452;28;19917;-81
2023/02/06 02:34:09;;;;;;;;;;;;;;;20.67;16.61;100181.00;5066414;28;19917;-81
2023/02/06 02:37:11;;;;;;;;;;;;;;;20.67;16.96;100170.63;5054712;28;20377;-81
2023/02/06 02:39:50;;;;;;;;;;;;;;;20.77;16.89;100172.03;5013018;28;19917;-81
2023/02/06 02:42:30;;;;;;;;;;;;;;;20.93;16.90;100175.66;5049992;28;20004;-81
2023/02/06 02:45:02;;;;;;;;;;;;;;;20.84;16.27;100172.22;5058871;28;19913;-81
2023/02/06 02:47:30;;;;;;;;;;;;;;;20.70;16.73;100179.47;5054769;28;19942;-81
2023/02/06 02:49:59;;;;;;;;;;;;;;;20.77;17.06;100168.47;5054246;28;19917;-81
2023/02/06 02:52:25;;;;;;;;;;;;;;;20.93;16.85;100160.88;5054500;28;19917;-81
2023/02/06 02:54:51;;;;;;;;;;;;;;;20.99;16.89;100165.00;5054616;28;20445;-81
2023/02/06 02:57:21;;;;;;;;;;;;;;;21.06;16.73;100149.25;5053097;28;19923;-81
2023/02/06 02:59:48;;;;;;;;;;;;;;;21.10;16.21;100143.75;5072031;28;19971;-81
2023/02/06 03:02:14;;;;;;;;;;;;;;;21.16;16.56;100145.09;5062196;28;20345;-81
2023/02/06 03:04:43;;;;;;;;;;;;;;;21.17;16.18;100138.31;5054375;28;20015;-81
2023/02/06 03:07:24;;;;;;;;;;;;;;;20.94;16.84;100131.75;5054014;28;19996;-81
2023/02/06 03:09:59;;;;;;;;;;;;;;;20.80;16.99;100146.22;5054200;28;19952;-81
2023/02/06 03:12:32;;;;;;;;;;;;;;;20.90;16.42;100142.88;5054118;28;19917;-81
2023/02/06 03:15:13;;;;;;;;;;;;;;;21.03;16.37;100149.94;5053849;28;19927;-81
2023/02/06 03:17:45;;;;;;;;;;;;;;;20.98;16.40;100141.84;5070745;28;20012;-81
2023/02/06 03:20:12;;;;;;;;;;;;;;;20.51;16.66;100153.06;5054200;28;19929;-81
2023/02/06 03:22:39;;;;;;;;;;;;;;;20.34;17.34;100149.81;5053984;28;20281;-81
2023/02/06 03:25:09;;;;;;;;;;;;;;;20.45;16.80;100145.31;5054004;28;20292;-81
2023/02/06 03:27:36;;;;;;;;;;;;;;;20.39;17.10;100138.41;5053862;28;20265;-81
2023/02/06 03:30:03;;;;;;;;;;;;;;;20.58;16.96;100146.88;5053429;28;20163;-81
2023/02/06 03:32:31;;;;;;;;;;;;;;;20.74;16.61;100153.25;5053684;28;19916;-81
2023/02/06 03:34:57;;;;;;;;;;;;;;;20.65;16.60;100138.66;5054356;28;19917;-81
2023/02/06 03:37:24;;;;;;;;;;;;;;;20.60;16.95;100144.53;5053592;28;19917;-81
2023/02/06 03:39:50;;;;;;;;;;;;;;;20.61;16.37;100148.91;5053688;28;19917;-81
2023/02/06 03:42:16;;;;;;;;;;;;;;;20.39;16.47;100153.16;5052719;28;20369;-81
2023/02/06 03:44:46;;;;;;;;;;;;;;;20.27;16.97;100147.66;5068102;28;19995;-81
2023/02/06 03:47:14;;;;;;;;;;;;;;;20.16;16.80;100159.69;5073820;28;19923;-81
2023/02/06 03:49:42;;;;;;;;;;;;;;;20.21;16.99;100165.00;5073871;28;19916;-81
2023/02/06 03:52:09;;;;;;;;;;;;;;;20.46;16.98;100169.28;5070199;28;19920;-81
2023/02/06 03:54:38;;;;;;;;;;;;;;;20.38;16.21;100168.28;5053514;28;19927;-81
2023/02/06 03:57:06;;;;;;;;;;;;;;;20.04;16.61;100173.69;5052084;28;20063;-81
2023/02/06 03:59:33;;;;;;;;;;;;;;;19.82;17.13;100170.28;5068682;28;19924;-81
2023/02/06 04:02:01;;;;;;;;;;;;;;;19.65;16.74;100173.38;5073377;28;19969;-81
2023/02/06 04:04:29;;;;;;;;;;;;;;;19.20;17.39;100175.56;5071980;28;20372;-81
2023/02/06 04:06:57;;;;;;;;;;;;;;;19.13;17.56;100164.19;5073333;28;19919;-81
2023/02/06 04:09:23;;;;;;;;;;;;;;;19.16;17.48;100167.09;5067387;28;19917;-81
2023/02/06 04:11:49;;;;;;;;;;;;;;;19.33;17.86;100166.81;5052934;28;19923;-82
2023/02/06 04:14:15;;;;;;;;;;;;;;;19.54;17.64;100155.53;5053214;28;19967;-81
2023/02/06 04:16:41;;;;;;;;;;;;;;;19.85;17.23;100152.88;5061613;28;20376;-82
2023/02/06 04:19:07;;;;;;;;;;;;;;;19.74;17.45;100160.09;5073139;28;20011;-82
2023/02/06 04:21:33;;;;;;;;;;;;;;;19.90;17.29;100154.59;5073127;28;20011;-81
2023/02/06 04:23:59;;;;;;;;;;;;;;;20.09;17.25;100148.31;5073239;28;19923;-81
2023/02/06 04:26:25;;;;;;;;;;;;;;;20.11;16.86;100138.44;5066759;28;19917;-81
2023/02/06 04:28:51;;;;;;;;;;;;;;;20.07;17.18;100134.72;5053105;28;19932;-81
2023/02/06 04:31:17;;;;;;;;;;;;;;;19.75;16.92;100138.63;5053281;28;20281;-81
2023/02/06 04:33:43;;;;;;;;;;;;;;;19.66;17.64;100138.78;5073366;28;20268;-81
2023/02/06 04:36:10;;;;;;;;;;;;;;;19.91;17.65;100140.28;5073222;28;20007;-81
2023/02/06 04:38:36;;;;;;;;;;;;;;;20.26;16.93;100137.66;5073035;28;19924;-81
2023/02/06 04:41:03;;;;;;;;;;;;;;;20.54;17.14;100148.75;5071587;28;19963;-81
2023/02/06 04:43:29;;;;;;;;;;;;;;;20.54;16.50;100143.16;5058974;28;20063;-81
2023/02/06 04:45:55;;;;;;;;;;;;;;;20.12;17.08;100142.84;5053154;28;20015;-81
2023/02/06 04:48:21;;;;;;;;;;;;;;;20.30;17.23;100151.72;5053035;28;19917;-81
2023/02/06 04:50:48;;;;;;;;;;;;;;;20.55;17.16;100155.97;5052885;28;19940;-81
2023/02/06 04:53:14;;;;;;;;;;;;;;;20.71;16.83;100162.34;5054582;28;20014;-81
2023/02/06 04:55:40;;;;;;;;;;;;;;;20.61;16.73;100166.47;5056572;28;19921;-81
2023/02/06 04:58:06;;;;;;;;;;;;;;;20.71;16.71;100162.34;5060278;28;19939;-81
2023/02/06 05:00:32;;;;;;;;;;;;;;;20.69;16.44;100161.91;5069480;28;19925;-81
2023/02/06 05:02:58;;;;;;;;;;;;;;;20.78;16.70;100162.50;5056474;28;19979;-82
2023/02/06 05:05:24;;;;;;;;;;;;;;;20.86;16.43;100169.91;5069659;28;19916;-81
2023/02/06 05:07:50;;;;;;;;;;;;;;;20.87;16.82;100168.72;5076333;28;19912;-82
2023/02/06 05:10:16;;;;;;;;;;;;;;;20.55;16.88;100181.88;5076098;28;19977;-81
2023/02/06 05:12:42;;;;;;;;;;;;;;;20.55;16.56;100173.50;5075221;28;19923;-81
2023/02/06 05:15:09;;;;;;;;;;;;;;;20.76;16.66;100180.78;5076300;28;20334;-81
2023/02/06 05:17:35;;;;;;;;;;;;;;;20.82;16.60;100185.75;5069304;28;20377;-81
2023/02/06 05:20:01;;;;;;;;;;;;;;;20.77;16.81;100180.41;5056588;28;19921;-82
2023/02/06 05:22:27;;;;;;;;;;;;;;;20.65;16.36;100181.31;5068361;28;19923;-82
2023/02/06 05:24:53;;;;;;;;;;;;;;;20.41;16.26;100187.09;5075665;28;19916;-81
2023/02/06 05:27:19;;;;;;;;;;;;;;;20.35;16.58;100194.09;5076088;28;20337;-81
2023/02/06 05:29:45;;;;;;;;;;;;;;;20.38;16.93;100187.81;5075905;28;20024;-81
2023/02/06 05:32:11;;;;;;;;;;;;;;;20.51;16.67;100194.13;5067381;28;19968;-81
2023/02/06 05:34:37;;;;;;;;;;;;;;;20.57;16.55;100192.69;5056610;28;20007;-82
2023/02/06 05:37:03;;;;;;;;;;;;;;;20.51;16.46;100192.13;5055834;28;19917;-81
2023/02/06 05:39:29;;;;;;;;;;;;;;;20.53;16.19;100191.78;5055602;28;19931;-82
2023/02/06 05:41:55;;;;;;;;;;;;;;;20.33;16.49;100190.03;5068644;28;20284;-81
2023/02/06 05:44:21;;;;;;;;;;;;;;;20.18;16.98;100183.25;5075880;28;20284;-81
2023/02/06 05:46:47;;;;;;;;;;;;;;;20.26;16.66;100182.28;5075786;28;19938;-81
2023/02/06 05:49:13;;;;;;;;;;;;;;;20.29;16.44;100191.94;5075861;28;19916;-81
2023/02/06 05:51:39;;;;;;;;;;;;;;;19.88;16.91;100196.75;5068049;28;19923;-81
2023/02/06 05:54:05;;;;;;;;;;;;;;;19.82;16.66;100191.78;5055764;28;20007;-81
2023/02/06 05:56:32;;;;;;;;;;;;;;;20.00;16.53;100195.88;5055423;28;19924;-81
2023/02/06 05:58:58;;;;;;;;;;;;;;;20.02;16.64;100199.94;5065868;28;19973;-81
2023/02/06 06:01:24;;;;;;;;;;;;;;;19.99;16.58;100188.69;5075432;28;19925;-81
2023/02/06 06:03:50;;;;;;;;;;;;;;;19.98;16.39;100192.63;5075291;28;20391;-81
2023/02/06 06:06:16;;;;;;;;;;;;;;;19.33;16.54;100189.13;5074860;28;19917;-81
2023/02/06 06:08:42;;;;;;;;;;;;;;;18.83;17.18;100193.44;5074415;28;19923;-81
2023/02/06 06:11:09;;;;;;;;;;;;;;;18.76;17.82;100193.22;5075211;28;19917;-81
2023/02/06 06:13:35;;;;;;;;;;;;;;;19.26;17.20;100193.66;5075181;28;19978;-81
2023/02/06 06:16:01;;;;;;;;;;;;;;;19.45;16.94;100190.28;5075145;28;19916;-81
2023/02/06 06:18:27;;;;;;;;;;;;;;;19.76;16.67;100196.00;5075035;28;19917;-81
2023/02/06 06:20:53;;;;;;;;;;;;;;;19.98;16.44;100192.63;5075139;28;19977;-81
2023/02/06 06:23:19;;;;;;;;;;;;;;;20.04;16.25;100199.59;5074985;28;20273;-81
2023/02/06 06:25:45;;;;;;;;;;;;;;;19.58;16.64;100184.31;5064497;28;20461;-81
2023/02/06 06:28:11;;;;;;;;;;;;;;;19.71;16.87;100188.69;5074958;28;19912;-81
2023/02/06 06:30:38;;;;;;;;;;;;;;;19.92;16.51;100191.28;5074223;28;20011;-81
2023/02/06 06:33:04;;;;;;;;;;;;;;;20.05;16.36;100189.25;5054787;28;19924;-81
2023/02/06 06:35:30;;;;;;;;;;;;;;;19.97;16.61;100177.09;5054825;28;20453;-81
2023/02/06 06:37:56;;;;;;;;;;;;;;;19.73;16.24;100177.19;5054324;28;20360;-81
2023/02/06 06:40:22;;;;;;;;;;;;;;;19.09;16.84;100169.66;5054763;28;19917;-81
2023/02/06 06:42:48;;;;;;;;;;;;;;;19.09;17.50;100175.22;5064334;28;19917;-81
2023/02/06 06:45:14;;;;;;;;;;;;;;;19.56;16.96;100178.28;5054536;28;20375;-81
2023/02/06 06:47:40;;;;;;;;;;;;;;;19.41;17.24;100186.56;5054528;28;19917;-81
2023/02/06 06:50:06;;;;;;;;;;;;;;;19.65;17.09;100180.94;5086288;28;19917;-81
2023/02/06 06:52:32;;;;;;;;;;;;;;;20.02;16.79;100183.19;5054388;28;19917;-81
2023/02/06 06:54:58;;;;;;;;;;;;;;;19.90;16.71;100190.81;5054973;28;20099;-81
2023/02/06 06:57:24;;;;;;;;;;;;;;;19.89;16.65;100195.59;5059391;28;19963;-81
2023/02/06 06:59:50;;;;;;;;;;;;;;;20.08;16.48;100194.09;5065304;28;19924;-81
2023/02/06 07:02:16;;;;;;;;;;;;;;;20.32;16.73;100192.03;5054201;28;20391;-81
2023/02/06 07:04:42;;;;;;;;;;;;;;;20.51;16.58;100191.34;5070148;28;20422;-81
2023/02/06 07:07:08;;;;;;;;;;;;;;;20.42;16.70;100191.50;5073863;28;20463;-81
2023/02/06 07:09:34;;;;;;;;;;;;;;;20.35;16.51;100196.09;5072629;28;19974;-81
2023/02/06 07:12:00;;;;;;;;;;;;;;;20.52;16.65;100192.94;5074105;28;19959;-81
2023/02/06 07:14:26;;;;;;;;;;;;;;;20.63;16.57;100180.88;5073928;28;19923;-81
2023/02/06 07:16:52;;;;;;;;;;;;;;;20.81;16.43;100184.13;5063974;28;19917;-81
2023/02/06 07:19:18;;;;;;;;;;;;;;;20.99;16.35;100187.34;5053420;28;20320;-81
2023/02/06 07:21:44;;;;;;;;;;;;;;;21.12;16.57;100186.13;5054591;28;19917;-81
2023/02/06 07:24:10;;;;;;;;;;;;;;;21.24;16.07;100189.59;5070473;28;19924;-81
2023/02/06 07:26:36;;;;;;;;;;;;;;;21.27;16.54;100194.44;5054107;28;19923;-81
2023/02/06 07:29:02;;;;;;;;;;;;;;;21.44;16.49;100189.63;5052354;28;20308;-81
2023/02/06 07:31:28;;;;;;;;;;;;;;;21.56;16.10;100189.50;5053517;28;19997;-81
2023/02/06 07:33:54;;;;;;;;;;;;;;;21.62;16.28;100183.25;5063649;28;19916;-81
2023/02/06 07:36:20;;;;;;;;;;;;;;;21.28;16.38;100186.88;5073624;28;20011;-81
2023/02/06 07:38:46;;;;;;;;;;;;;;;20.77;16.85;100188.00;5064221;28;19916;-81
2023/02/06 07:41:12;;;;;;;;;;;;;;;20.38;16.97;100192.56;5053924;28;19916;-81
2023/02/06 07:43:38;;;;;;;;;;;;;;;19.99;17.49;100191.47;5053784;28;19928;-81
2023/02/06 07:46:04;;;;;;;;;;;;;;;20.04;17.95;100193.19;5053899;28;19917;-81
2023/02/06 07:48:30;;;;;;;;;;;;;;;20.07;17.70;100184.13;5053532;28;19963;-81
2023/02/06 07:51:02;;;;;;;;;;;;;;;19.87;17.84;100188.75;5063603;28;19985;-81
2023/02/06 07:53:28;;;;;;;;;;;;;;;19.51;17.97;100191.66;5073627;28;20386;-81
2023/02/06 07:55:54;;;;;;;;;;;;;;;19.50;18.26;100193.63;5071048;28;19917;-81
2023/02/06 07:58:20;;;;;;;;;;;;;;;19.60;18.40;100186.75;5053878;28;19916;-81
2023/02/06 08:00:46;;;;;;;;;;;;;;;19.66;18.44;100196.47;5053698;28;19917;-81
2023/02/06 08:03:12;;;;;;;;;;;;;;;19.62;18.33;100188.03;5052316;28;19916;-81
2023/02/06 08:05:38;;;;;;;;;;;;;;;19.62;18.50;100187.22;5053398;28;19928;-81
2023/02/06 08:08:05;;;;;;;;;;;;;;;19.57;18.64;100196.63;5054162;28;19917;-81
2023/02/06 08:10:31;;;;;;;;;;;;;;;19.33;18.88;100189.13;5053574;28;19920;-81
2023/02/06 08:12:57;;;;;;;;;;;;;;;18.70;19.84;100198.19;5053126;28;19918;-81
2023/02/06 08:15:24;;;;;;;;;;;;;;;18.52;20.09;100194.00;5053290;28;19920;-81
2023/02/06 08:17:50;;;;;;;;;;;;;;;18.94;19.24;100184.28;5053198;28;19939;-81
2023/02/06 08:20:16;;;;;;;;;;;;;;;19.04;19.46;100178.22;5053136;28;20007;-81
2023/02/06 08:22:42;;;;;;;;;;;;;;;18.86;19.55;100178.81;5053308;28;19921;-84
2023/02/06 08:25:08;;;;;;;;;;;;;;;19.44;18.85;100174.72;5064402;28;19923;-82
2023/02/06 08:27:34;;;;;;;;;;;;;;;20.12;18.63;100181.09;5073732;28;19916;-82
2023/02/06 08:30:00;;;;;;;;;;;;;;;20.48;18.38;100178.09;5076819;28;19925;-82
2023/02/06 08:32:31;;;;;;;;;;;;;;;20.78;17.61;100170.88;5061644;28;20023;-81
2023/02/06 08:34:57;;;;;;;;;;;;;;;20.37;18.19;100183.41;5056966;28;19953;-81
2023/02/06 08:37:23;;;;;;;;;;;;;;;19.89;18.99;100184.44;5056866;28;19921;-82
2023/02/06 08:39:49;;;;;;;;;;;;;;;19.26;19.56;100185.28;5055859;28;19917;-82
2023/02/06 08:42:15;;;;;;;;;;;;;;;19.29;19.71;100187.38;5057591;28;20066;-81
2023/02/06 08:44:41;;;;;;;;;;;;;;;20.13;18.85;100183.50;5056984;28;19952;-81
2023/02/06 08:47:07;;;;;;;;;;;;;;;20.30;18.37;100185.19;5055473;28;20018;-82
2023/02/06 08:49:34;;;;;;;;;;;;;;;20.39;17.95;100186.66;5056575;28;19917;-81
2023/02/06 08:52:00;;;;;;;;;;;;;;;19.85;18.97;100188.28;5056867;28;19924;-81
2023/02/06 08:54:26;;;;;;;;;;;;;;;18.63;19.82;100190.44;5057007;28;19917;-82
2023/02/06 08:56:55;;;;;;;;;;;;;;;18.83;19.84;100182.31;5056682;28;19917;-82
2023/02/06 08:59:21;;;;;;;;;;;;;;;19.90;18.70;100183.28;5061039;28;19971;-81
2023/02/06 09:01:48;;;;;;;;;;;;;;;20.82;17.88;100182.94;5056931;28;19983;-81
2023/02/06 09:04:14;;;;;;;;;;;;;;;21.17;17.34;100186.63;5061184;28;19922;-81
2023/02/06 09:06:42;;;;;;;;;;;;;;;21.41;18.12;100185.56;5076545;28;20321;-81
2023/02/06 09:09:09;;;;;;;;;;;;;;;21.78;17.11;100181.19;5076806;28;19912;-81
2023/02/06 09:11:36;;;;;;;;;;;;;;;22.02;17.16;100188.50;5076492;28;20474;-81
2023/02/06 09:14:02;;;;;;;;;;;;;;;22.24;16.51;100184.91;5075434;28;19912;-81
2023/02/06 09:16:29;;;;;;;;;;;;;;;21.27;17.54;100180.47;5061926;28;19943;-81
2023/02/06 09:19:00;;;;;;;;;;;;;;;20.62;18.32;100187.66;5056472;28;19917;-81
2023/02/06 09:21:27;;;;;;;;;;;;;;;21.21;17.14;100176.34;5056083;28;19917;-81
2023/02/06 09:23:55;;;;;;;;;;;;;;;21.74;17.32;100190.69;5056497;28;19940;-81
2023/02/06 09:26:22;;;;;;;;;;;;;;;22.34;17.29;100183.50;5055824;28;19916;-81
2023/02/06 09:28:52;;;;;;;;;;;;;;;21.14;17.47;100187.34;5056115;28;20007;-81
2023/02/06 09:31:19;;;;;;;;;;;;;;;21.68;17.56;100186.56;5055839;28;20463;-81
2023/02/06 09:33:45;;;;;;;;;;;;;;;22.08;17.11;100189.81;5056684;28;19917;-81
2023/02/06 09:36:12;;;;;;;;;;;;;;;22.00;16.90;100188.88;5055813;28;19917;-81
2023/02/06 09:38:40;;;;;;;;;;;;;;;22.46;16.76;100189.75;5055345;28;19921;-81
2023/02/06 09:41:12;;;;;;;;;;;;;;;21.33;17.42;100195.78;5053978;28;19916;-81
2023/02/06 09:43:42;;;;;;;;;;;;;;;17.46;20.87;100205.91;5055968;28;19912;-81
2023/02/06 09:46:11;;;;;;;;;;;;;;;15.55;22.75;100206.09;5054272;28;19916;-81
2023/02/06 09:48:38;;;;;;;;;;;;;;;15.41;22.97;100202.66;5055817;28;19913;-81
2023/02/06 09:51:22;;;;;;;;;;;;;;;16.96;21.37;100192.88;5075309;28;19917;-81
2023/02/06 09:53:58;;;;;;;;;;;;;;;19.84;18.86;100198.63;5075697;28;20008;-81
2023/02/06 09:56:27;;;;;;;;;;;;;;;20.12;17.85;100187.44;5068149;28;19927;-81
2023/02/06 09:59:11;;;;;;;;;;;;;;;16.65;21.72;100197.09;5065704;28;19931;-81
2023/02/06 10:01:42;;;;;;;;;;;;;;;16.00;21.83;100200.22;5075216;28;19917;-81
2023/02/06 10:04:17;;;;;;;;;;;;;;;15.36;22.56;100197.28;5075943;28;19920;-81
2023/02/06 10:06:49;;;;;;;;;;;;;;;16.01;21.26;100199.09;5074537;28;20004;-81
2023/02/06 10:09:20;;;;;;;;;;;;;;;16.59;21.16;100202.03;5075539;28;20344;-82
2023/02/06 10:11:50;;;;;;;;;;;;;;;14.32;23.82;100200.06;5075178;28;19916;-83
2023/02/06 10:14:21;;;;;;;;;;;;;;;13.04;24.81;100202.56;5073641;28;19927;-81
2023/02/06 10:16:55;;;;;;;;;;;;;;;11.77;27.49;100209.69;5075202;28;20384;-81
2023/02/06 10:19:39;;;;;;;;;;;;;;;12.87;25.43;100208.72;5071285;28;19924;-81
2023/02/06 10:22:10;;;;;;;;;;;;;;;15.69;21.57;100206.75;5056237;28;20284;-79
2023/02/06 10:24:40;;;;;;;;;;;;;;;12.90;24.57;100215.56;5056134;28;20304;-81
2023/02/06 10:27:10;;;;;;;;;;;;;;;11.39;28.26;100219.03;5054902;28;20391;-81
2023/02/06 10:29:36;;;;;;;;;;;;;;;10.37;28.70;100224.19;5054372;28;19972;-81
2023/02/06 10:32:07;;;;;;;;;;;;;;;11.71;27.83;100223.81;5055053;28;20272;-82
2023/02/06 10:34:47;;;;;;;;;;;;;;;10.47;28.44;100217.78;5055145;28;20368;-82
2023/02/06 10:37:28;;;;;;;;;;;;;;;11.92;26.82;100219.63;5054722;28;19924;-80
2023/02/06 10:40:03;;;;;;;;;;;;;;;12.27;26.50;100220.94;5055433;28;19987;-81
2023/02/06 10:42:47;;;;;;;;;;;;;;;12.64;25.66;100214.44;5054791;28;19954;-81
2023/02/06 10:45:25;;;;;;;;;;;;;;;15.94;21.06;100198.78;5054599;28;19917;-81
2023/02/06 10:47:57;;;;;;;;;;;;;;;16.43;21.10;100204.50;5054628;28;19916;-82
2023/02/06 10:50:27;;;;;;;;;;;;;;;16.19;21.83;100198.72;5053023;28;20008;-82
2023/02/06 10:52:55;;;;;;;;;;;;;;;16.73;20.84;100191.53;5054873;28;19916;-81
2023/02/06 10:55:23;;;;;;;;;;;;;;;14.48;23.43;100193.81;5069845;28;19921;-82
2023/02/06 10:57:58;;;;;;;;;;;;;;;14.67;23.28;100193.56;5065723;28;19916;-82
2023/02/06 11:00:25;;;;;;;;;;;;;;;14.57;23.89;100198.53;5094637;28;19924;-82
2023/02/06 11:02:54;;;;;;;;;;;;;;;13.82;22.78;100202.13;5071781;28;19913;-82
2023/02/06 11:05:22;;;;;;;;;;;;;;;12.65;26.10;100208.59;5074718;28;19925;-82
2023/02/06 11:07:50;;;;;;;;;;;;;;;12.57;27.22;100203.81;5074243;28;19966;-82
2023/02/06 11:10:16;;;;;;;;;;;;;;;11.81;25.33;100204.38;5074215;28;19960;-82
2023/02/06 11:12:46;;;;;;;;;;;;;;;11.20;27.16;100207.25;5073794;28;20407;-81
2023/02/06 11:15:15;;;;;;;;;;;;;;;12.47;26.15;100204.00;5061314;28;19920;-82
2023/02/06 11:17:42;;;;;;;;;;;;;;;12.06;27.48;100203.97;5054157;28;19917;-82
2023/02/06 11:20:15;;;;;;;;;;;;;;;13.19;25.04;100196.75;5053963;28;19927;-82
2023/02/06 11:22:41;;;;;;;;;;;;;;;15.43;21.15;100194.84;5054017;28;20392;-82
2023/02/06 11:25:18;;;;;;;;;;;;;;;14.24;23.54;100198.00;5054064;28;19923;-81
2023/02/06 11:27:44;;;;;;;;;;;;;;;13.13;24.86;100189.72;5053631;28;20288;-81
2023/02/06 11:30:39;;;;;;;;;;;;;;;12.99;25.32;100198.00;5057864;28;19925;-82
2023/02/06 11:33:40;;;;;;;;;;;;;;;13.01;24.59;100198.50;5058042;28;19917;-81
2023/02/06 11:36:21;;;;;;;;;;;;;;;13.90;24.28;100192.28;4992605;28;20394;-81
2023/02/06 11:39:07;;;;;;;;;;;;;;;11.85;27.21;100197.19;5046957;28;20297;-81
2023/02/06 11:41:33;;;;;;;;;;;;;;;10.73;28.48;100196.31;5054171;28;19917;-81
2023/02/06 11:44:05;;;;;;;;;;;;;;;13.06;25.66;100184.63;5053669;28;19924;-81
2023/02/06 11:46:34;;;;;;;;;;;;;;;14.48;23.64;100184.69;5053961;28;19986;-82
2023/02/06 11:49:02;;;;;;;;;;;;;;;16.10;21.93;100180.47;5054502;28;19917;-82
2023/02/06 11:51:43;;;;;;;;;;;;;;;15.30;22.32;100186.69;5052213;28;20399;-82
2023/02/06 11:54:17;;;;;;;;;;;;;;;17.71;19.35;100183.53;5053472;28;19956;-82
2023/02/06 11:56:53;;;;;;;;;;;;;;;18.80;18.40;100175.47;5051827;28;19956;-82
2023/02/06 11:59:21;;;;;;;;;;;;;;;15.99;20.01;100182.78;5073755;28;19925;-82
2023/02/06 12:01:48;;;;;;;;;;;;;;;14.10;23.93;100186.25;5073197;28;19920;-82
2023/02/06 12:04:22;;;;;;;;;;;;;;;14.10;24.27;100192.59;5070734;28;19916;-82
2023/02/06 12:06:53;;;;;;;;;;;;;;;13.67;23.31;100186.78;5054524;28;20032;-82
2023/02/06 12:09:19;;;;;;;;;;;;;;;13.10;25.25;100185.63;5053006;28;20011;-82
2023/02/06 12:12:00;;;;;;;;;;;;;;;11.91;26.57;100195.13;5053157;28;19913;-82
2023/02/06 12:14:31;;;;;;;;;;;;;;;11.65;26.47;100203.78;5053285;28;19923;-82
2023/02/06 12:16:58;;;;;;;;;;;;;;;13.14;24.53;100194.91;5053338;28;19913;-82
2023/02/06 12:19:30;;;;;;;;;;;;;;;10.43;28.21;100195.56;5053345;28;20317;-82
2023/02/06 12:22:03;;;;;;;;;;;;;;;10.22;28.47;100202.38;5055306;28;20265;-82
2023/02/06 12:24:37;;;;;;;;;;;;;;;11.44;27.42;100196.97;5073332;28;19978;-82
2023/02/06 12:27:08;;;;;;;;;;;;;;;13.06;24.55;100190.16;5073442;28;19917;-82
2023/02/06 12:29:36;;;;;;;;;;;;;;;13.17;24.24;100190.72;5069564;28;19928;-82
2023/02/06 12:32:15;;;;;;;;;;;;;;;13.07;24.07;100196.44;5053301;28;19917;-82
2023/02/06 12:34:52;;;;;;;;;;;;;;;13.01;25.09;100195.72;5053481;28;19913;-82
2023/02/06 12:37:21;;;;;;;;;;;;;;;12.35;25.26;100204.50;5053029;28;19921;-82
2023/02/06 12:39:47;;;;;;;;;;;;;;;11.80;26.39;100202.75;5054069;28;20360;-82
2023/02/06 12:42:13;;;;;;;;;;;;;;;12.35;25.73;100212.78;5053273;28;20015;-82